createdAt,value
2023-01-23T00:01:11.966Z,90
2023-01-23T00:11:14.057Z,90
2023-01-23T00:21:16.516Z,90
2023-01-23T00:31:18.450Z,90
2023-01-23T00:41:20.250Z,90
2023-01-23T00:51:22.904Z,90
2023-01-23T01:01:25.371Z,90
2023-01-23T01:11:27.881Z,90
2023-01-23T01:21:30.002Z,90
2023-01-23T01:31:31.885Z,90
2023-01-23T01:41:33.485Z,90
2023-01-23T01:51:35.793Z,90
2023-01-23T02:11:39.747Z,90
2023-01-23T02:21:41.853Z,90
2023-01-23T02:31:43.948Z,90
2023-01-23T02:41:45.994Z,90
2023-01-23T02:51:48.372Z,90
2023-01-23T03:11:52.555Z,90
2023-01-23T03:21:54.293Z,90
2023-01-23T03:31:56.184Z,90
2023-01-23T03:41:58.094Z,90
2023-01-23T03:51:59.973Z,90
2023-01-23T04:02:02.214Z,90
2023-01-23T04:12:04.639Z,90
2023-01-23T04:22:06.354Z,89
2023-01-23T04:32:08.257Z,89
2023-01-23T04:42:10.176Z,89
2023-01-23T05:02:14.783Z,89
2023-01-23T05:12:17.407Z,89
2023-01-23T05:22:19.536Z,89
2023-01-23T05:32:21.930Z,89
2023-01-23T05:42:24.361Z,89
2023-01-23T05:52:26.066Z,89
2023-01-23T06:02:28.661Z,89
2023-01-23T06:12:30.939Z,89
2023-01-23T06:22:33.221Z,89
2023-01-23T06:32:35.614Z,89
2023-01-23T06:42:37.468Z,89
2023-01-23T06:52:39.464Z,88
2023-01-23T07:02:41.277Z,88
2023-01-23T07:12:43.055Z,88
2023-01-23T07:22:44.870Z,88
2023-01-23T07:32:47.445Z,88
2023-01-23T07:42:49.112Z,88
2023-01-23T07:52:50.970Z,88
2023-01-23T08:02:53.599Z,88
2023-01-23T08:12:55.844Z,88
2023-01-23T08:22:58.218Z,88
2023-01-23T08:33:00.123Z,88
2023-01-23T08:43:02.327Z,88
2023-01-23T08:53:04.033Z,88
2023-01-23T09:03:05.857Z,88
2023-01-23T09:13:08.215Z,87
2023-01-23T09:23:10.152Z,87
2023-01-23T09:33:12.039Z,87
2023-01-23T09:43:14.103Z,86
2023-01-23T09:53:16.203Z,86
2023-01-23T10:03:18.151Z,85
2023-01-23T10:13:20.584Z,85
2023-01-23T10:23:22.449Z,84
2023-01-23T10:33:24.470Z,84
2023-01-23T10:43:26.907Z,83
2023-01-23T10:53:28.975Z,83
2023-01-23T11:03:30.866Z,82
2023-01-23T11:13:33.211Z,82
2023-01-23T11:23:34.858Z,82
2023-01-23T11:33:37.254Z,82
2023-01-23T11:43:39.186Z,82
2023-01-23T11:53:43.095Z,81
2023-01-23T12:03:43.752Z,81
2023-01-23T12:23:47.912Z,81
2023-01-23T12:33:50.030Z,80
2023-01-23T12:43:54.272Z,80
2023-01-23T13:03:57.271Z,80
2023-01-23T13:14:00.896Z,80
2023-01-23T13:34:15.207Z,80
2023-01-23T13:44:06.588Z,80
2023-01-23T14:24:14.847Z,80
2023-01-23T14:34:18.801Z,80
2023-01-23T14:44:19.705Z,80
2023-01-23T14:54:23.201Z,80
2023-01-23T15:04:23.120Z,81
2023-01-23T15:14:24.811Z,81
2023-01-23T16:34:43.624Z,82
2023-01-23T16:44:45.594Z,82
2023-01-23T17:04:49.738Z,82
2023-01-23T17:14:52.383Z,82
2023-01-23T18:35:10.293Z,81
2023-01-23T19:25:21.027Z,82
2023-01-23T20:35:35.904Z,83
2023-01-23T21:46:11.540Z,82
2023-01-23T21:55:59.218Z,82
2023-01-23T22:06:01.554Z,82
2023-01-23T22:16:03.759Z,82
2023-01-23T22:26:07.706Z,82
2023-01-23T22:36:07.576Z,82
2023-01-23T22:46:10.197Z,82
2023-01-23T22:56:12.492Z,82
2023-01-23T23:06:14.933Z,82
2023-01-23T23:16:17.431Z,81
2023-01-23T23:26:19.465Z,81
2023-01-23T23:46:23.867Z,81
2023-01-23T23:56:26.206Z,81
